sensor_id;sensor_type;location;lat;lon;timestamp;temperature;humidity
68251;DHT22;55066;51.560;4.642;2023-03-14T00:00:29;11.40;92.67
68251;DHT22;55066;51.560;4.642;2023-03-14T00:02:55;11.33;94.18
68251;DHT22;55066;51.560;4.642;2023-03-14T00:05:22;11.33;93.39
68251;DHT22;55066;51.560;4.642;2023-03-14T00:07:50;11.26;92.89
68251;DHT22;55066;51.560;4.642;2023-03-14T00:10:18;11.31;91.94
68251;DHT22;55066;51.560;4.642;2023-03-14T00:12:45;11.17;92.72
68251;DHT22;55066;51.560;4.642;2023-03-14T00:15:12;11.24;92.93
68251;DHT22;55066;51.560;4.642;2023-03-14T00:17:42;11.23;94.32
68251;DHT22;55066;51.560;4.642;2023-03-14T00:20:11;11.16;92.62
68251;DHT22;55066;51.560;4.642;2023-03-14T00:22:39;11.23;92.04
68251;DHT22;55066;51.560;4.642;2023-03-14T00:25:09;11.19;92.86
68251;DHT22;55066;51.560;4.642;2023-03-14T00:27:36;11.16;92.86
68251;DHT22;55066;51.560;4.642;2023-03-14T00:30:05;11.13;92.43
68251;DHT22;55066;51.560;4.642;2023-03-14T00:32:34;11.12;92.45
68251;DHT22;55066;51.560;4.642;2023-03-14T00:35:00;11.14;92.33
68251;DHT22;55066;51.560;4.642;2023-03-14T00:37:26;11.13;91.98
68251;DHT22;55066;51.560;4.642;2023-03-14T00:39:52;11.09;92.68
68251;DHT22;55066;51.560;4.642;2023-03-14T00:42:18;11.12;92.11
68251;DHT22;55066;51.560;4.642;2023-03-14T00:44:43;11.16;93.10
68251;DHT22;55066;51.560;4.642;2023-03-14T00:47:09;11.09;92.92
68251;DHT22;55066;51.560;4.642;2023-03-14T00:49:36;11.03;93.39
68251;DHT22;55066;51.560;4.642;2023-03-14T00:52:02;10.92;94.38
68251;DHT22;55066;51.560;4.642;2023-03-14T00:54:30;10.96;95.78
68251;DHT22;55066;51.560;4.642;2023-03-14T00:56:57;10.82;96.78
68251;DHT22;55066;51.560;4.642;2023-03-14T00:59:23;10.52;98.11
68251;DHT22;55066;51.560;4.642;2023-03-14T01:01:50;10.57;98.35
68251;DHT22;55066;51.560;4.642;2023-03-14T01:04:17;10.42;99.00
68251;DHT22;55066;51.560;4.642;2023-03-14T01:06:44;10.40;98.90
68251;DHT22;55066;51.560;4.642;2023-03-14T01:09:10;10.51;98.68
68251;DHT22;55066;51.560;4.642;2023-03-14T01:11:36;10.41;98.66
68251;DHT22;55066;51.560;4.642;2023-03-14T01:14:03;10.38;98.12
68251;DHT22;55066;51.560;4.642;2023-03-14T01:16:34;10.37;98.31
68251;DHT22;55066;51.560;4.642;2023-03-14T01:19:01;10.57;97.85
68251;DHT22;55066;51.560;4.642;2023-03-14T01:21:30;10.59;97.41
68251;DHT22;55066;51.560;4.642;2023-03-14T01:23:58;10.58;96.65
68251;DHT22;55066;51.560;4.642;2023-03-14T01:26:26;10.47;98.21
68251;DHT22;55066;51.560;4.642;2023-03-14T01:28:55;10.41;99.35
68251;DHT22;55066;51.560;4.642;2023-03-14T01:31:24;10.36;98.97
68251;DHT22;55066;51.560;4.642;2023-03-14T01:33:51;10.25;99.20
68251;DHT22;55066;51.560;4.642;2023-03-14T01:36:18;10.24;98.80
68251;DHT22;55066;51.560;4.642;2023-03-14T01:38:51;10.27;98.57
68251;DHT22;55066;51.560;4.642;2023-03-14T01:41:21;10.21;98.27
68251;DHT22;55066;51.560;4.642;2023-03-14T01:43:47;10.27;98.76
68251;DHT22;55066;51.560;4.642;2023-03-14T01:46:35;10.38;98.04
68251;DHT22;55066;51.560;4.642;2023-03-14T01:54:44;10.42;97.32
68251;DHT22;55066;51.560;4.642;2023-03-14T01:57:16;10.41;97.28
68251;DHT22;55066;51.560;4.642;2023-03-14T01:59:51;10.28;98.03
68251;DHT22;55066;51.560;4.642;2023-03-14T02:02:18;10.25;98.03
68251;DHT22;55066;51.560;4.642;2023-03-14T02:04:43;10.33;98.25
68251;DHT22;55066;51.560;4.642;2023-03-14T02:07:22;10.31;97.74
68251;DHT22;55066;51.560;4.642;2023-03-14T02:10:08;10.30;97.46
68251;DHT22;55066;51.560;4.642;2023-03-14T02:12:37;10.24;98.13
68251;DHT22;55066;51.560;4.642;2023-03-14T02:15:22;10.42;99.00
68251;DHT22;55066;51.560;4.642;2023-03-14T02:17:58;10.40;98.27
68251;DHT22;55066;51.560;4.642;2023-03-14T02:23:15;10.30;98.49
68251;DHT22;55066;51.560;4.642;2023-03-14T02:28:11;10.36;97.92
68251;DHT22;55066;51.560;4.642;2023-03-14T02:30:58;10.30;97.76
68251;DHT22;55066;51.560;4.642;2023-03-14T02:33:26;10.28;98.54
68251;DHT22;55066;51.560;4.642;2023-03-14T02:36:03;10.34;98.13
68251;DHT22;55066;51.560;4.642;2023-03-14T02:38:38;10.25;98.39
68251;DHT22;55066;51.560;4.642;2023-03-14T02:41:05;10.25;98.70
68251;DHT22;55066;51.560;4.642;2023-03-14T02:43:35;10.28;98.73
68251;DHT22;55066;51.560;4.642;2023-03-14T02:46:04;10.33;98.29
68251;DHT22;55066;51.560;4.642;2023-03-14T02:49:08;10.36;98.62
68251;DHT22;55066;51.560;4.642;2023-03-14T02:51:29;10.30;98.37
68251;DHT22;55066;51.560;4.642;2023-03-14T02:53:57;10.16;98.92
68251;DHT22;55066;51.560;4.642;2023-03-14T02:56:24;10.24;98.95
68251;DHT22;55066;51.560;4.642;2023-03-14T02:58:50;10.24;99.16
68251;DHT22;55066;51.560;4.642;2023-03-14T03:01:24;10.20;99.11
68251;DHT22;55066;51.560;4.642;2023-03-14T03:03:52;10.17;99.22
68251;DHT22;55066;51.560;4.642;2023-03-14T03:06:19;10.09;99.44
68251;DHT22;55066;51.560;4.642;2023-03-14T03:08:44;10.16;99.29
68251;DHT22;55066;51.560;4.642;2023-03-14T03:11:13;10.17;99.14
68251;DHT22;55066;51.560;4.642;2023-03-14T03:13:39;10.11;99.24
68251;DHT22;55066;51.560;4.642;2023-03-14T03:16:15;10.20;99.14
68251;DHT22;55066;51.560;4.642;2023-03-14T03:18:41;10.10;99.23
68251;DHT22;55066;51.560;4.642;2023-03-14T03:21:08;10.17;99.60
68251;DHT22;55066;51.560;4.642;2023-03-14T03:23:36;10.14;99.17
68251;DHT22;55066;51.560;4.642;2023-03-14T03:26:03;10.16;99.10
68251;DHT22;55066;51.560;4.642;2023-03-14T03:28:28;10.17;99.08
68251;DHT22;55066;51.560;4.642;2023-03-14T03:30:56;10.13;99.21
68251;DHT22;55066;51.560;4.642;2023-03-14T03:33:21;10.13;99.41
68251;DHT22;55066;51.560;4.642;2023-03-14T03:35:50;10.04;99.44
68251;DHT22;55066;51.560;4.642;2023-03-14T03:38:37;10.06;99.49
68251;DHT22;55066;51.560;4.642;2023-03-14T03:41:06;10.21;99.05
68251;DHT22;55066;51.560;4.642;2023-03-14T03:43:34;10.17;99.09
68251;DHT22;55066;51.560;4.642;2023-03-14T03:46:05;10.20;99.07
68251;DHT22;55066;51.560;4.642;2023-03-14T03:48:31;10.14;99.15
68251;DHT22;55066;51.560;4.642;2023-03-14T03:51:00;10.11;99.17
68251;DHT22;55066;51.560;4.642;2023-03-14T03:53:28;10.09;99.36
68251;DHT22;55066;51.560;4.642;2023-03-14T03:55:54;10.06;99.49
68251;DHT22;55066;51.560;4.642;2023-03-14T03:58:21;10.20;99.58
68251;DHT22;55066;51.560;4.642;2023-03-14T04:00:47;10.17;99.40
68251;DHT22;55066;51.560;4.642;2023-03-14T04:03:13;10.13;99.81
68251;DHT22;55066;51.560;4.642;2023-03-14T04:05:38;10.10;99.95
68251;DHT22;55066;51.560;4.642;2023-03-14T04:08:12;10.07;99.99
68251;DHT22;55066;51.560;4.642;2023-03-14T04:10:38;10.11;99.99
68251;DHT22;55066;51.560;4.642;2023-03-14T04:13:09;10.11;99.98
68251;DHT22;55066;51.560;4.642;2023-03-14T04:15:38;10.09;99.99
68251;DHT22;55066;51.560;4.642;2023-03-14T04:18:17;10.07;99.99
68251;DHT22;55066;51.560;4.642;2023-03-14T04:20:43;10.03;99.99
68251;DHT22;55066;51.560;4.642;2023-03-14T04:23:10;10.04;99.99
68251;DHT22;55066;51.560;4.642;2023-03-14T04:25:36;10.00;99.99
68251;DHT22;55066;51.560;4.642;2023-03-14T04:28:04;10.07;99.99
68251;DHT22;55066;51.560;4.642;2023-03-14T04:30:32;10.07;99.99
68251;DHT22;55066;51.560;4.642;2023-03-14T04:33:03;10.06;99.99
68251;DHT22;55066;51.560;4.642;2023-03-14T04:35:31;10.07;99.99
68251;DHT22;55066;51.560;4.642;2023-03-14T04:38:00;10.00;99.99
68251;DHT22;55066;51.560;4.642;2023-03-14T04:40:31;9.97;99.99
68251;DHT22;55066;51.560;4.642;2023-03-14T04:43:01;9.94;99.99
68251;DHT22;55066;51.560;4.642;2023-03-14T04:45:27;10.07;99.99
68251;DHT22;55066;51.560;4.642;2023-03-14T04:47:56;9.96;99.99
68251;DHT22;55066;51.560;4.642;2023-03-14T04:50:22;10.03;99.99
68251;DHT22;55066;51.560;4.642;2023-03-14T04:52:48;10.06;99.99
68251;DHT22;55066;51.560;4.642;2023-03-14T04:55:15;10.03;99.99
68251;DHT22;55066;51.560;4.642;2023-03-14T04:57:41;10.03;99.99
68251;DHT22;55066;51.560;4.642;2023-03-14T05:00:14;10.03;99.99
68251;DHT22;55066;51.560;4.642;2023-03-14T05:03:14;10.00;99.99
68251;DHT22;55066;51.560;4.642;2023-03-14T05:06:09;9.99;99.99
68251;DHT22;55066;51.560;4.642;2023-03-14T05:08:45;9.96;99.99
68251;DHT22;55066;51.560;4.642;2023-03-14T05:11:29;9.90;99.99
68251;DHT22;55066;51.560;4.642;2023-03-14T05:14:06;9.90;99.99
68251;DHT22;55066;51.560;4.642;2023-03-14T05:16:38;9.86;99.99
68251;DHT22;55066;51.560;4.642;2023-03-14T05:19:36;9.99;99.99
68251;DHT22;55066;51.560;4.642;2023-03-14T05:22:23;10.00;99.99
68251;DHT22;55066;51.560;4.642;2023-03-14T05:25:08;9.99;99.99
68251;DHT22;55066;51.560;4.642;2023-03-14T05:27:55;9.99;99.99
68251;DHT22;55066;51.560;4.642;2023-03-14T05:30:39;9.99;99.99
68251;DHT22;55066;51.560;4.642;2023-03-14T05:33:43;10.00;99.99
68251;DHT22;55066;51.560;4.642;2023-03-14T05:36:33;9.94;99.99
68251;DHT22;55066;51.560;4.642;2023-03-14T05:39:00;9.86;99.99
68251;DHT22;55066;51.560;4.642;2023-03-14T05:41:40;9.79;99.99
68251;DHT22;55066;51.560;4.642;2023-03-14T05:44:27;9.78;99.99
68251;DHT22;55066;51.560;4.642;2023-03-14T05:47:09;9.78;99.99
68251;DHT22;55066;51.560;4.642;2023-03-14T05:49:53;9.69;99.99
68251;DHT22;55066;51.560;4.642;2023-03-14T05:52:45;9.76;99.99
68251;DHT22;55066;51.560;4.642;2023-03-14T05:55:29;9.54;99.99
68251;DHT22;55066;51.560;4.642;2023-03-14T05:58:13;9.52;99.99
68251;DHT22;55066;51.560;4.642;2023-03-14T06:00:50;9.48;99.99
68251;DHT22;55066;51.560;4.642;2023-03-14T06:03:29;9.45;99.99
68251;DHT22;55066;51.560;4.642;2023-03-14T06:05:56;9.51;99.99
68251;DHT22;55066;51.560;4.642;2023-03-14T06:08:23;9.58;99.99
68251;DHT22;55066;51.560;4.642;2023-03-14T06:10:51;9.55;99.99
68251;DHT22;55066;51.560;4.642;2023-03-14T06:13:18;9.52;99.99
68251;DHT22;55066;51.560;4.642;2023-03-14T06:15:44;9.58;99.99
68251;DHT22;55066;51.560;4.642;2023-03-14T06:18:10;9.52;99.99
68251;DHT22;55066;51.560;4.642;2023-03-14T06:20:37;9.54;99.99
68251;DHT22;55066;51.560;4.642;2023-03-14T06:23:08;9.51;99.99
68251;DHT22;55066;51.560;4.642;2023-03-14T06:25:35;9.62;99.99
68251;DHT22;55066;51.560;4.642;2023-03-14T06:28:03;9.69;99.99
68251;DHT22;55066;51.560;4.642;2023-03-14T06:30:29;9.49;99.99
68251;DHT22;55066;51.560;4.642;2023-03-14T06:32:55;9.16;99.99
68251;DHT22;55066;51.560;4.642;2023-03-14T06:35:22;8.79;99.99
68251;DHT22;55066;51.560;4.642;2023-03-14T06:37:50;9.03;99.99
68251;DHT22;55066;51.560;4.642;2023-03-14T06:40:18;8.96;99.99
68251;DHT22;55066;51.560;4.642;2023-03-14T06:42:55;8.99;99.99
68251;DHT22;55066;51.560;4.642;2023-03-14T06:45:22;8.65;99.99
68251;DHT22;55066;51.560;4.642;2023-03-14T06:47:48;8.90;99.99
68251;DHT22;55066;51.560;4.642;2023-03-14T06:50:16;8.89;99.99
68251;DHT22;55066;51.560;4.642;2023-03-14T06:52:43;8.62;99.99
68251;DHT22;55066;51.560;4.642;2023-03-14T06:55:15;8.79;99.99
68251;DHT22;55066;51.560;4.642;2023-03-14T06:57:41;8.68;99.99
68251;DHT22;55066;51.560;4.642;2023-03-14T07:00:13;8.73;99.99
68251;DHT22;55066;51.560;4.642;2023-03-14T07:02:41;8.72;99.99
68251;DHT22;55066;51.560;4.642;2023-03-14T07:05:10;8.81;99.99
68251;DHT22;55066;51.560;4.642;2023-03-14T07:07:36;8.72;99.99
68251;DHT22;55066;51.560;4.642;2023-03-14T07:10:02;8.56;99.99
68251;DHT22;55066;51.560;4.642;2023-03-14T07:12:28;8.68;99.99
68251;DHT22;55066;51.560;4.642;2023-03-14T07:14:54;8.52;99.99
68251;DHT22;55066;51.560;4.642;2023-03-14T07:17:20;8.31;99.99
68251;DHT22;55066;51.560;4.642;2023-03-14T07:19:49;8.48;99.99
68251;DHT22;55066;51.560;4.642;2023-03-14T07:22:14;8.23;99.99
68251;DHT22;55066;51.560;4.642;2023-03-14T07:24:40;8.30;99.99
68251;DHT22;55066;51.560;4.642;2023-03-14T07:27:05;8.44;99.99
68251;DHT22;55066;51.560;4.642;2023-03-14T07:29:31;8.46;99.99
68251;DHT22;55066;51.560;4.642;2023-03-14T07:31:57;8.31;99.99
68251;DHT22;55066;51.560;4.642;2023-03-14T07:34:23;8.46;99.99
68251;DHT22;55066;51.560;4.642;2023-03-14T07:36:49;8.66;99.99
68251;DHT22;55066;51.560;4.642;2023-03-14T07:39:15;8.37;99.99
68251;DHT22;55066;51.560;4.642;2023-03-14T07:41:51;8.61;99.99
68251;DHT22;55066;51.560;4.642;2023-03-14T07:44:35;8.40;99.99
68251;DHT22;55066;51.560;4.642;2023-03-14T07:47:01;8.34;99.99
68251;DHT22;55066;51.560;4.642;2023-03-14T07:49:26;8.40;99.99
68251;DHT22;55066;51.560;4.642;2023-03-14T07:51:52;8.35;99.99
68251;DHT22;55066;51.560;4.642;2023-03-14T07:54:19;8.24;99.99
68251;DHT22;55066;51.560;4.642;2023-03-14T07:56:45;8.31;99.99
68251;DHT22;55066;51.560;4.642;2023-03-14T07:59:11;8.24;99.99
68251;DHT22;55066;51.560;4.642;2023-03-14T08:01:37;8.42;99.99
68251;DHT22;55066;51.560;4.642;2023-03-14T08:04:04;8.44;99.99
68251;DHT22;55066;51.560;4.642;2023-03-14T08:06:29;8.40;99.99
68251;DHT22;55066;51.560;4.642;2023-03-14T08:08:55;8.37;99.99
68251;DHT22;55066;51.560;4.642;2023-03-14T08:11:21;8.46;99.99
68251;DHT22;55066;51.560;4.642;2023-03-14T08:13:48;8.79;99.99
68251;DHT22;55066;51.560;4.642;2023-03-14T08:16:19;8.48;99.99
68251;DHT22;55066;51.560;4.642;2023-03-14T08:18:45;8.81;99.99
68251;DHT22;55066;51.560;4.642;2023-03-14T08:21:11;8.75;99.99
68251;DHT22;55066;51.560;4.642;2023-03-14T08:23:37;8.68;99.99
68251;DHT22;55066;51.560;4.642;2023-03-14T08:26:03;8.75;99.99
68251;DHT22;55066;51.560;4.642;2023-03-14T08:28:28;8.76;99.99
68251;DHT22;55066;51.560;4.642;2023-03-14T08:30:57;8.89;99.99
68251;DHT22;55066;51.560;4.642;2023-03-14T08:33:24;8.87;99.99
68251;DHT22;55066;51.560;4.642;2023-03-14T08:35:57;9.00;99.99
68251;DHT22;55066;51.560;4.642;2023-03-14T08:38:23;8.96;99.99
68251;DHT22;55066;51.560;4.642;2023-03-14T08:40:55;8.79;99.99
68251;DHT22;55066;51.560;4.642;2023-03-14T08:43:26;8.72;99.99
68251;DHT22;55066;51.560;4.642;2023-03-14T08:45:59;8.91;99.99
68251;DHT22;55066;51.560;4.642;2023-03-14T08:48:26;8.80;99.99
68251;DHT22;55066;51.560;4.642;2023-03-14T08:50:56;8.91;99.99
68251;DHT22;55066;51.560;4.642;2023-03-14T08:53:23;8.87;99.99
68251;DHT22;55066;51.560;4.642;2023-03-14T08:55:56;8.76;99.99
68251;DHT22;55066;51.560;4.642;2023-03-14T08:58:22;8.73;99.99
68251;DHT22;55066;51.560;4.642;2023-03-14T09:00:49;8.91;99.99
68251;DHT22;55066;51.560;4.642;2023-03-14T09:03:17;8.86;99.99
68251;DHT22;55066;51.560;4.642;2023-03-14T09:05:46;8.68;99.99
68251;DHT22;55066;51.560;4.642;2023-03-14T09:08:11;8.84;99.99
68251;DHT22;55066;51.560;4.642;2023-03-14T09:10:37;8.44;99.99
68251;DHT22;55066;51.560;4.642;2023-03-14T09:13:03;8.32;99.99
68251;DHT22;55066;51.560;4.642;2023-03-14T09:15:29;8.03;99.99
68251;DHT22;55066;51.560;4.642;2023-03-14T09:17:54;8.27;99.99
68251;DHT22;55066;51.560;4.642;2023-03-14T09:20:21;8.55;99.99
68251;DHT22;55066;51.560;4.642;2023-03-14T09:22:47;8.56;99.99
68251;DHT22;55066;51.560;4.642;2023-03-14T09:25:15;8.44;99.99
68251;DHT22;55066;51.560;4.642;2023-03-14T09:27:47;8.51;99.99
68251;DHT22;55066;51.560;4.642;2023-03-14T09:30:14;8.63;99.99
68251;DHT22;55066;51.560;4.642;2023-03-14T09:32:40;8.48;99.99
68251;DHT22;55066;51.560;4.642;2023-03-14T09:35:06;8.31;99.99
68251;DHT22;55066;51.560;4.642;2023-03-14T09:37:33;8.32;99.66
68251;DHT22;55066;51.560;4.642;2023-03-14T09:39:59;8.32;99.99
68251;DHT22;55066;51.560;4.642;2023-03-14T09:42:26;7.65;99.99
68251;DHT22;55066;51.560;4.642;2023-03-14T09:45:00;7.69;99.99
68251;DHT22;55066;51.560;4.642;2023-03-14T09:47:27;7.34;99.99
68251;DHT22;55066;51.560;4.642;2023-03-14T09:49:53;7.89;99.99
68251;DHT22;55066;51.560;4.642;2023-03-14T09:52:23;7.91;98.52
68251;DHT22;55066;51.560;4.642;2023-03-14T09:54:52;7.56;99.45
68251;DHT22;55066;51.560;4.642;2023-03-14T09:57:21;8.42;99.99
68251;DHT22;55066;51.560;4.642;2023-03-14T09:59:50;7.96;99.93
68251;DHT22;55066;51.560;4.642;2023-03-14T10:02:32;8.08;98.44
68251;DHT22;55066;51.560;4.642;2023-03-14T10:04:59;8.24;96.13
68251;DHT22;55066;51.560;4.642;2023-03-14T10:07:30;8.44;98.75
68251;DHT22;55066;51.560;4.642;2023-03-14T10:09:58;8.38;99.21
68251;DHT22;55066;51.560;4.642;2023-03-14T10:12:34;8.42;96.84
68251;DHT22;55066;51.560;4.642;2023-03-14T10:15:24;8.77;98.18
68251;DHT22;55066;51.560;4.642;2023-03-14T10:17:51;8.75;98.07
68251;DHT22;55066;51.560;4.642;2023-03-14T10:20:33;8.15;95.79
68251;DHT22;55066;51.560;4.642;2023-03-14T10:23:06;7.93;97.24
68251;DHT22;55066;51.560;4.642;2023-03-14T10:25:38;7.97;98.06
68251;DHT22;55066;51.560;4.642;2023-03-14T10:28:05;8.44;99.18
68251;DHT22;55066;51.560;4.642;2023-03-14T10:30:44;8.46;96.29
68251;DHT22;55066;51.560;4.642;2023-03-14T10:33:21;8.87;97.57
68251;DHT22;55066;51.560;4.642;2023-03-14T10:38:23;8.93;97.47
68251;DHT22;55066;51.560;4.642;2023-03-14T10:40:51;8.40;95.90
68251;DHT22;55066;51.560;4.642;2023-03-14T10:43:38;8.25;99.99
68251;DHT22;55066;51.560;4.642;2023-03-14T10:46:31;8.46;99.99
68251;DHT22;55066;51.560;4.642;2023-03-14T10:49:33;8.01;99.99
68251;DHT22;55066;51.560;4.642;2023-03-14T10:54:34;8.25;99.82
68251;DHT22;55066;51.560;4.642;2023-03-14T10:57:01;8.27;98.39
68251;DHT22;55066;51.560;4.642;2023-03-14T10:59:50;8.40;99.76
68251;DHT22;55066;51.560;4.642;2023-03-14T11:02:32;7.58;97.07
68251;DHT22;55066;51.560;4.642;2023-03-14T11:05:27;8.23;98.64
68251;DHT22;55066;51.560;4.642;2023-03-14T11:08:01;8.28;96.89
68251;DHT22;55066;51.560;4.642;2023-03-14T11:10:34;7.86;97.37
68251;DHT22;55066;51.560;4.642;2023-03-14T11:24:23;8.23;96.03
68251;DHT22;55066;51.560;4.642;2023-03-14T11:29:41;7.86;94.15
68251;DHT22;55066;51.560;4.642;2023-03-14T11:32:14;8.07;95.67
68251;DHT22;55066;51.560;4.642;2023-03-14T11:34:54;7.66;92.33
68251;DHT22;55066;51.560;4.642;2023-03-14T11:37:33;8.04;98.98
68251;DHT22;55066;51.560;4.642;2023-03-14T11:42:32;8.13;96.79
68251;DHT22;55066;51.560;4.642;2023-03-14T11:44:59;8.44;93.71
68251;DHT22;55066;51.560;4.642;2023-03-14T11:47:33;8.90;98.30
68251;DHT22;55066;51.560;4.642;2023-03-14T11:53:08;8.76;90.91
68251;DHT22;55066;51.560;4.642;2023-03-14T11:55:36;8.62;89.34
68251;DHT22;55066;51.560;4.642;2023-03-14T11:58:27;8.41;89.60
68251;DHT22;55066;51.560;4.642;2023-03-14T12:00:56;8.86;90.94
68251;DHT22;55066;51.560;4.642;2023-03-14T12:06:33;9.23;91.26
68251;DHT22;55066;51.560;4.642;2023-03-14T12:09:05;9.21;86.93
68251;DHT22;55066;51.560;4.642;2023-03-14T12:11:59;9.68;89.97
68251;DHT22;55066;51.560;4.642;2023-03-14T12:14:35;9.75;93.48
68251;DHT22;55066;51.560;4.642;2023-03-14T12:17:13;9.63;90.33
68251;DHT22;55066;51.560;4.642;2023-03-14T12:19:43;10.03;91.08
68251;DHT22;55066;51.560;4.642;2023-03-14T12:25:15;9.78;84.88
68251;DHT22;55066;51.560;4.642;2023-03-14T12:30:38;9.97;79.63
68251;DHT22;55066;51.560;4.642;2023-03-14T12:35:49;9.72;82.42
68251;DHT22;55066;51.560;4.642;2023-03-14T12:43:43;10.42;87.95
68251;DHT22;55066;51.560;4.642;2023-03-14T12:48:39;10.37;83.89
68251;DHT22;55066;51.560;4.642;2023-03-14T12:51:20;10.21;83.64
68251;DHT22;55066;51.560;4.642;2023-03-14T12:54:09;10.02;76.60
68251;DHT22;55066;51.560;4.642;2023-03-14T13:01:47;10.34;71.60
68251;DHT22;55066;51.560;4.642;2023-03-14T13:04:13;10.40;80.37
68251;DHT22;55066;51.560;4.642;2023-03-14T13:06:54;10.24;78.88
68251;DHT22;55066;51.560;4.642;2023-03-14T13:12:09;10.33;83.27
68251;DHT22;55066;51.560;4.642;2023-03-14T13:14:40;10.47;73.03
68251;DHT22;55066;51.560;4.642;2023-03-14T13:17:14;9.81;65.26
68251;DHT22;55066;51.560;4.642;2023-03-14T13:19:40;10.25;75.46
68251;DHT22;55066;51.560;4.642;2023-03-14T13:22:22;10.49;76.42
68251;DHT22;55066;51.560;4.642;2023-03-14T13:24:48;10.76;77.08
68251;DHT22;55066;51.560;4.642;2023-03-14T13:27:18;10.68;78.27
68251;DHT22;55066;51.560;4.642;2023-03-14T13:29:50;10.61;74.52
68251;DHT22;55066;51.560;4.642;2023-03-14T13:32:26;10.58;78.21
68251;DHT22;55066;51.560;4.642;2023-03-14T13:34:58;10.79;80.88
68251;DHT22;55066;51.560;4.642;2023-03-14T13:37:25;10.76;81.75
68251;DHT22;55066;51.560;4.642;2023-03-14T13:39:55;11.19;77.90
68251;DHT22;55066;51.560;4.642;2023-03-14T13:42:29;10.96;81.22
68251;DHT22;55066;51.560;4.642;2023-03-14T13:44:56;11.04;84.16
68251;DHT22;55066;51.560;4.642;2023-03-14T13:47:24;10.85;77.81
68251;DHT22;55066;51.560;4.642;2023-03-14T13:49:51;10.55;81.57
68251;DHT22;55066;51.560;4.642;2023-03-14T13:52:36;10.75;78.97
68251;DHT22;55066;51.560;4.642;2023-03-14T13:55:04;10.75;81.61
68251;DHT22;55066;51.560;4.642;2023-03-14T13:57:51;10.37;78.94
68251;DHT22;55066;51.560;4.642;2023-03-14T14:00:25;10.54;86.43
68251;DHT22;55066;51.560;4.642;2023-03-14T14:02:57;10.78;80.87
68251;DHT22;55066;51.560;4.642;2023-03-14T14:05:29;10.66;84.98
68251;DHT22;55066;51.560;4.642;2023-03-14T14:07:56;10.33;79.44
68251;DHT22;55066;51.560;4.642;2023-03-14T14:10:22;10.80;85.23
68251;DHT22;55066;51.560;4.642;2023-03-14T14:12:55;10.79;82.42
68251;DHT22;55066;51.560;4.642;2023-03-14T14:15:26;10.89;81.03
68251;DHT22;55066;51.560;4.642;2023-03-14T14:17:54;10.71;81.82
68251;DHT22;55066;51.560;4.642;2023-03-14T14:20:44;10.41;77.00
68251;DHT22;55066;51.560;4.642;2023-03-14T14:23:13;10.73;85.50
68251;DHT22;55066;51.560;4.642;2023-03-14T14:25:43;10.97;87.92
68251;DHT22;55066;51.560;4.642;2023-03-14T14:28:28;10.64;80.12
68251;DHT22;55066;51.560;4.642;2023-03-14T14:31:04;10.80;80.92
68251;DHT22;55066;51.560;4.642;2023-03-14T14:33:58;10.66;79.06
68251;DHT22;55066;51.560;4.642;2023-03-14T14:38:54;10.38;79.52
68251;DHT22;55066;51.560;4.642;2023-03-14T14:41:27;10.18;82.67
68251;DHT22;55066;51.560;4.642;2023-03-14T14:43:53;10.06;87.64
68251;DHT22;55066;51.560;4.642;2023-03-14T14:46:21;9.56;77.61
68251;DHT22;55066;51.560;4.642;2023-03-14T14:48:47;10.41;87.78
68251;DHT22;55066;51.560;4.642;2023-03-14T14:51:25;9.96;87.54
68251;DHT22;55066;51.560;4.642;2023-03-14T14:54:17;9.69;85.13
68251;DHT22;55066;51.560;4.642;2023-03-14T14:56:51;9.89;86.32
68251;DHT22;55066;51.560;4.642;2023-03-14T14:59:26;9.82;84.51
68251;DHT22;55066;51.560;4.642;2023-03-14T15:01:58;9.83;87.30
68251;DHT22;55066;51.560;4.642;2023-03-14T15:04:24;9.52;87.40
68251;DHT22;55066;51.560;4.642;2023-03-14T15:06:51;9.45;81.36
68251;DHT22;55066;51.560;4.642;2023-03-14T15:09:19;9.76;86.86
68251;DHT22;55066;51.560;4.642;2023-03-14T15:11:47;9.59;88.92
68251;DHT22;55066;51.560;4.642;2023-03-14T15:14:14;9.69;87.83
68251;DHT22;55066;51.560;4.642;2023-03-14T15:16:40;9.30;80.68
68251;DHT22;55066;51.560;4.642;2023-03-14T15:19:33;9.93;89.19
68251;DHT22;55066;51.560;4.642;2023-03-14T15:21:59;9.93;88.32
68251;DHT22;55066;51.560;4.642;2023-03-14T15:24:24;9.92;91.36
68251;DHT22;55066;51.560;4.642;2023-03-14T15:26:50;9.44;83.90
68251;DHT22;55066;51.560;4.642;2023-03-14T15:29:16;9.49;84.66
68251;DHT22;55066;51.560;4.642;2023-03-14T15:31:43;9.54;84.22
68251;DHT22;55066;51.560;4.642;2023-03-14T15:34:10;9.58;86.37
68251;DHT22;55066;51.560;4.642;2023-03-14T15:36:37;9.73;91.22
68251;DHT22;55066;51.560;4.642;2023-03-14T15:39:05;9.44;89.11
68251;DHT22;55066;51.560;4.642;2023-03-14T15:41:31;9.79;89.24
68251;DHT22;55066;51.560;4.642;2023-03-14T15:43:57;9.39;91.61
68251;DHT22;55066;51.560;4.642;2023-03-14T15:46:23;9.39;88.27
68251;DHT22;55066;51.560;4.642;2023-03-14T15:48:50;9.23;92.78
68251;DHT22;55066;51.560;4.642;2023-03-14T15:51:16;9.38;93.19
68251;DHT22;55066;51.560;4.642;2023-03-14T15:53:43;9.32;92.27
68251;DHT22;55066;51.560;4.642;2023-03-14T15:56:16;8.89;86.62
68251;DHT22;55066;51.560;4.642;2023-03-14T15:58:43;8.94;92.76
68251;DHT22;55066;51.560;4.642;2023-03-14T16:01:13;9.20;95.21
68251;DHT22;55066;51.560;4.642;2023-03-14T16:03:40;9.42;93.09
68251;DHT22;55066;51.560;4.642;2023-03-14T16:06:06;9.38;91.22
68251;DHT22;55066;51.560;4.642;2023-03-14T16:08:32;9.04;94.04
68251;DHT22;55066;51.560;4.642;2023-03-14T16:10:59;8.84;86.00
68251;DHT22;55066;51.560;4.642;2023-03-14T16:13:25;8.79;87.57
68251;DHT22;55066;51.560;4.642;2023-03-14T16:15:57;8.97;85.14
68251;DHT22;55066;51.560;4.642;2023-03-14T16:18:23;9.11;89.92
68251;DHT22;55066;51.560;4.642;2023-03-14T16:20:58;8.87;84.34
68251;DHT22;55066;51.560;4.642;2023-03-14T16:23:26;9.37;91.94
68251;DHT22;55066;51.560;4.642;2023-03-14T16:25:52;9.31;89.78
68251;DHT22;55066;51.560;4.642;2023-03-14T16:28:18;9.55;91.23
68251;DHT22;55066;51.560;4.642;2023-03-14T16:30:44;9.41;91.32
68251;DHT22;55066;51.560;4.642;2023-03-14T16:33:18;8.93;83.02
68251;DHT22;55066;51.560;4.642;2023-03-14T16:36:00;8.69;83.34
68251;DHT22;55066;51.560;4.642;2023-03-14T16:38:30;8.89;89.89
68251;DHT22;55066;51.560;4.642;2023-03-14T16:40:58;8.65;79.86
68251;DHT22;55066;51.560;4.642;2023-03-14T16:43:30;8.90;94.15
68251;DHT22;55066;51.560;4.642;2023-03-14T16:45:58;8.61;88.39
68251;DHT22;55066;51.560;4.642;2023-03-14T16:48:25;8.68;89.56
68251;DHT22;55066;51.560;4.642;2023-03-14T16:50:50;8.28;88.83
68251;DHT22;55066;51.560;4.642;2023-03-14T16:53:17;8.63;86.59
68251;DHT22;55066;51.560;4.642;2023-03-14T16:55:44;8.44;84.64
68251;DHT22;55066;51.560;4.642;2023-03-14T16:58:11;8.35;89.61
68251;DHT22;55066;51.560;4.642;2023-03-14T17:00:39;8.68;93.94
68251;DHT22;55066;51.560;4.642;2023-03-14T17:03:06;8.52;92.85
68251;DHT22;55066;51.560;4.642;2023-03-14T17:05:32;8.07;82.38
68251;DHT22;55066;51.560;4.642;2023-03-14T17:07:57;8.18;88.73